Time;durP1;ratioP1;P1;durP2;ratioP2;P2;SDS_P1;SDS_P2;PMS_P1;PMS_P2;Temp;Humidity;BMP_temperature;BMP_pressure;BME280_temperature;BME280_humidity;BME280_pressure;Samples;Min_cycle;Max_cycle;Signal;HPM_P1;HPM_P2
2022/07/04 00:00:40;;;;;;;1.83;0.80;;;;;;;18.35;97.02;100862.75;5172031;28;20030;-74
2022/07/04 00:03:10;;;;;;;2.78;0.68;;;;;;;18.21;96.53;100866.19;5166279;28;20029;-76
2022/07/04 00:05:40;;;;;;;1.95;0.80;;;;;;;18.29;95.65;100868.41;5171262;28;20069;-77
2022/07/04 00:08:11;;;;;;;1.40;0.75;;;;;;;18.15;97.23;100871.03;5168280;28;20403;-77
2022/07/04 00:10:41;;;;;;;3.67;0.85;;;;;;;18.00;98.51;100866.69;5169261;28;20035;-77
2022/07/04 00:13:11;;;;;;;1.85;0.70;;;;;;;18.15;97.07;100863.09;5170875;28;20026;-77
2022/07/04 00:15:42;;;;;;;3.72;0.90;;;;;;;17.74;100.00;100870.03;5168682;28;20074;-77
2022/07/04 00:18:12;;;;;;;2.45;0.95;;;;;;;17.72;99.01;100871.94;5154888;28;20040;-77
2022/07/04 00:20:42;;;;;;;2.17;0.70;;;;;;;17.64;100.00;100874.19;5163010;28;20025;-77
2022/07/04 00:23:13;;;;;;;1.70;0.82;;;;;;;17.65;100.00;100875.91;5169460;28;20031;-77
2022/07/04 00:25:43;;;;;;;2.95;0.90;;;;;;;17.56;100.00;100866.72;5171209;28;20025;-77
2022/07/04 00:28:13;;;;;;;1.80;1.00;;;;;;;17.46;100.00;100875.28;5168014;28;20468;-77
2022/07/04 00:30:44;;;;;;;4.95;1.13;;;;;;;17.24;99.05;100874.78;5171464;28;20022;-77
2022/07/04 00:33:15;;;;;;;2.45;0.88;;;;;;;17.25;100.00;100871.19;5166127;28;20034;-77
2022/07/04 00:35:46;;;;;;;5.05;1.00;;;;;;;17.23;100.00;100873.09;5171915;28;20153;-77
2022/07/04 00:38:16;;;;;;;7.68;1.00;;;;;;;17.15;99.85;100877.97;5167383;28;20113;-76
2022/07/04 00:40:46;;;;;;;4.07;1.08;;;;;;;16.81;100.00;100881.66;5168133;28;20030;-76
2022/07/04 00:43:25;;;;;;;5.50;1.27;;;;;;;16.41;100.00;100877.84;5171365;28;20034;-77
2022/07/04 00:45:56;;;;;;;4.68;1.10;;;;;;;16.28;100.00;100882.03;5166177;28;20499;-77
2022/07/04 00:48:26;;;;;;;7.05;1.20;;;;;;;16.50;100.00;100880.81;5169728;28;20053;-77
2022/07/04 00:50:57;;;;;;;9.50;1.25;;;;;;;16.58;100.00;100873.31;5169402;28;20034;-77
2022/07/04 00:53:27;;;;;;;1.95;1.05;;;;;;;16.71;100.00;100874.34;5168918;28;20039;-77
2022/07/04 00:55:58;;;;;;;5.05;1.10;;;;;;;16.67;100.00;100883.38;5169021;28;20061;-77
2022/07/04 00:58:29;;;;;;;5.95;0.82;;;;;;;16.77;100.00;100874.03;5171466;28;20387;-77
2022/07/04 01:01:00;;;;;;;5.15;1.10;;;;;;;16.65;100.00;100864.16;5173717;28;20030;-77
2022/07/04 01:03:30;;;;;;;6.82;1.10;;;;;;;16.60;100.00;100878.53;5166818;28;20079;-77
2022/07/04 01:06:00;;;;;;;3.25;0.90;;;;;;;16.60;100.00;100884.66;5167331;28;20033;-77
2022/07/04 01:08:31;;;;;;;5.35;1.05;;;;;;;16.65;100.00;100884.41;5172312;28;20126;-77
2022/07/04 01:11:01;;;;;;;6.22;1.10;;;;;;;16.68;100.00;100881.56;5172622;28;20400;-77
2022/07/04 01:13:32;;;;;;;1.63;0.95;;;;;;;16.74;100.00;100874.19;5171463;28;20030;-77
2022/07/04 01:16:03;;;;;;;2.65;1.00;;;;;;;16.94;100.00;100873.94;5173713;28;20037;-77
2022/07/04 01:18:34;;;;;;;2.10;0.90;;;;;;;17.08;100.00;100882.75;5172256;28;20113;-77
2022/07/04 01:21:05;;;;;;;1.58;1.00;;;;;;;17.11;100.00;100887.03;5173748;28;20106;-77
2022/07/04 01:23:38;;;;;;;2.28;0.98;;;;;;;17.12;100.00;100891.38;5172615;28;20072;-77
2022/07/04 01:26:08;;;;;;;2.53;1.17;;;;;;;17.31;100.00;100890.19;5173920;28;20022;-77
2022/07/04 01:28:39;;;;;;;2.60;1.10;;;;;;;17.07;100.00;100894.25;5172204;28;20135;-77
2022/07/04 01:31:10;;;;;;;3.53;1.25;;;;;;;17.17;100.00;100895.41;5173637;28;20573;-77
2022/07/04 01:33:40;;;;;;;2.53;1.00;;;;;;;17.09;99.90;100886.22;5164747;28;20030;-77
2022/07/04 01:36:10;;;;;;;4.25;1.30;;;;;;;17.18;100.00;100888.38;5166030;28;20281;-76
2022/07/04 01:38:40;;;;;;;2.85;0.90;;;;;;;17.20;99.55;100891.75;5173311;28;20076;-77
2022/07/04 01:41:11;;;;;;;4.40;1.05;;;;;;;17.22;98.37;100888.09;5172032;28;20096;-75
2022/07/04 01:43:41;;;;;;;2.30;0.90;;;;;;;17.20;98.10;100894.41;5170717;28;20560;-77
2022/07/04 01:46:11;;;;;;;1.90;0.80;;;;;;;17.02;99.33;100887.53;5173608;28;20303;-76
2022/07/04 01:48:42;;;;;;;4.85;1.00;;;;;;;16.97;98.53;100902.78;5171206;28;20193;-77
2022/07/04 01:51:12;;;;;;;4.55;1.02;;;;;;;16.86;100.00;100900.75;5173886;28;20033;-77
2022/07/04 01:53:42;;;;;;;2.28;0.90;;;;;;;16.91;100.00;100903.13;5171596;28;20465;-77
2022/07/04 01:56:13;;;;;;;1.88;0.90;;;;;;;16.93;100.00;100902.13;5172963;28;20033;-77
2022/07/04 01:58:43;;;;;;;2.05;0.80;;;;;;;16.91;98.74;100897.84;5171061;28;20028;-77
2022/07/04 02:01:32;;;;;;;2.60;1.00;;;;;;;16.88;99.97;100906.81;5173768;28;20029;-77
2022/07/04 02:04:03;;;;;;;2.47;0.90;;;;;;;16.67;100.00;100901.00;5161587;28;20077;-77
2022/07/04 02:06:34;;;;;;;3.65;1.00;;;;;;;16.63;100.00;100908.25;5167720;28;20084;-77
2022/07/04 02:09:17;;;;;;;2.38;0.98;;;;;;;16.76;100.00;100911.88;5173185;28;20034;-77
2022/07/04 02:14:36;;;;;;;4.00;1.15;;;;;;;16.71;99.78;100910.47;5171617;28;20107;-76
2022/07/04 02:17:06;;;;;;;4.00;1.23;;;;;;;16.74;98.46;100916.41;5172184;28;20418;-77
2022/07/04 02:19:36;;;;;;;2.05;0.90;;;;;;;16.50;100.00;100912.50;5171171;28;20034;-77
2022/07/04 02:22:07;;;;;;;2.50;0.95;;;;;;;16.53;100.00;100908.84;5173022;28;20037;-77
2022/07/04 02:24:37;;;;;;;3.40;1.40;;;;;;;16.52;98.72;100910.63;5170998;28;20026;-77
2022/07/04 02:27:08;;;;;;;2.95;0.85;;;;;;;16.58;100.00;100909.44;5172506;28;20033;-77
2022/07/04 02:29:39;;;;;;;4.90;1.15;;;;;;;16.39;100.00;100920.13;5171161;28;20142;-77
2022/07/04 02:32:10;;;;;;;3.08;1.00;;;;;;;16.36;100.00;100914.19;5171631;28;20037;-77
2022/07/04 02:34:40;;;;;;;2.60;0.93;;;;;;;16.44;100.00;100915.47;5161499;28;20396;-77
2022/07/04 02:37:11;;;;;;;3.78;1.00;;;;;;;16.52;100.00;100915.06;5169294;28;20038;-77
2022/07/04 02:39:41;;;;;;;2.35;1.17;;;;;;;16.49;100.00;100921.34;5170386;28;20286;-77
2022/07/04 02:42:11;;;;;;;4.55;1.40;;;;;;;16.51;100.00;100910.69;5170800;28;20033;-77
2022/07/04 02:44:43;;;;;;;3.03;1.10;;;;;;;16.48;100.00;100908.22;5170373;28;20411;-77
2022/07/04 02:47:15;;;;;;;4.00;1.20;;;;;;;16.67;100.00;100914.19;5172779;28;20541;-77
2022/07/04 02:49:45;;;;;;;2.55;0.95;;;;;;;16.70;100.00;100920.16;5169131;28;20150;-77
2022/07/04 02:52:15;;;;;;;3.22;1.10;;;;;;;16.67;100.00;100922.97;5174037;28;20102;-77
2022/07/04 02:54:46;;;;;;;1.63;0.93;;;;;;;16.72;99.83;100922.72;5169334;28;20476;-76
2022/07/04 02:57:17;;;;;;;2.92;1.00;;;;;;;16.63;100.00;100920.56;5171697;28;20430;-77
2022/07/04 02:59:48;;;;;;;1.13;0.80;;;;;;;16.62;100.00;100917.09;5164615;28;20022;-77
2022/07/04 03:02:18;;;;;;;1.80;0.90;;;;;;;16.48;100.00;100924.91;5170322;28;20080;-76
2022/07/04 03:04:48;;;;;;;2.15;0.90;;;;;;;16.51;100.00;100930.03;5160693;28;20069;-77
2022/07/04 03:07:19;;;;;;;4.35;1.10;;;;;;;16.45;100.00;100929.50;5168948;28;20105;-77
2022/07/04 03:09:49;;;;;;;1.63;1.00;;;;;;;16.42;100.00;100925.22;5169706;28;20034;-77
2022/07/04 03:12:19;;;;;;;1.77;0.90;;;;;;;16.26;100.00;100940.16;5170725;28;20097;-77
2022/07/04 03:14:50;;;;;;;3.08;0.80;;;;;;;16.42;100.00;100941.06;5169752;28;20038;-77
2022/07/04 03:17:21;;;;;;;4.05;1.23;;;;;;;16.29;99.95;100933.84;5171785;28;20048;-77
2022/07/04 03:19:51;;;;;;;3.42;1.05;;;;;;;16.11;100.00;100940.97;5169397;28;20030;-77
2022/07/04 03:22:21;;;;;;;4.43;1.02;;;;;;;15.97;100.00;100938.19;5171107;28;20117;-77
2022/07/04 03:24:52;;;;;;;4.85;1.20;;;;;;;15.88;100.00;100949.19;5169846;28;20030;-77
2022/07/04 03:27:22;;;;;;;4.65;1.95;;;;;;;15.96;100.00;100960.22;5171543;28;20037;-77
2022/07/04 03:29:52;;;;;;;5.90;2.03;;;;;;;15.99;100.00;100953.91;5166684;28;20038;-77
2022/07/04 03:32:23;;;;;;;5.47;1.58;;;;;;;16.13;100.00;100947.00;5166163;28;20030;-77
2022/07/04 03:34:53;;;;;;;3.90;1.45;;;;;;;16.10;100.00;100955.09;5170883;28;20427;-77
2022/07/04 03:37:23;;;;;;;4.30;1.55;;;;;;;16.20;100.00;100952.81;5194318;23;20041;-73
2022/07/04 03:39:54;;;;;;;3.60;1.13;;;;;;;16.33;100.00;100957.34;5179514;28;20446;-74
2022/07/04 03:42:24;;;;;;;3.25;1.02;;;;;;;16.48;100.00;100967.13;5180462;28;20056;-74
2022/07/04 03:44:54;;;;;;;2.05;1.00;;;;;;;16.50;100.00;100974.94;5180812;28;20033;-74
2022/07/04 03:47:25;;;;;;;2.33;1.00;;;;;;;16.52;100.00;100970.47;5190785;28;20026;-74
2022/07/04 03:49:55;;;;;;;2.10;0.90;;;;;;;16.63;100.00;100970.72;5170521;28;20108;-74
2022/07/04 03:52:25;;;;;;;5.22;1.65;;;;;;;16.58;100.00;100981.53;5185281;28;20092;-73
2022/07/04 03:54:56;;;;;;;2.40;1.10;;;;;;;16.58;100.00;100986.81;5171229;28;20034;-74
2022/07/04 03:57:26;;;;;;;6.70;1.50;;;;;;;16.42;100.00;100982.44;5184458;28;20037;-74
2022/07/04 03:59:57;;;;;;;4.25;1.40;;;;;;;16.56;100.00;100975.47;5167542;28;20072;-74
2022/07/04 04:02:27;;;;;;;3.45;1.20;;;;;;;16.78;100.00;100970.78;5168951;28;20022;-74
2022/07/04 04:07:46;;;;;;;2.17;1.00;;;;;;;16.56;100.00;100991.31;5167831;28;20579;-74
2022/07/04 04:10:17;;;;;;;3.30;0.98;;;;;;;16.60;100.00;100987.59;5168125;28;20026;-74
2022/07/04 04:12:47;;;;;;;6.32;1.20;;;;;;;17.04;98.78;100983.38;5163857;28;20459;-74
2022/07/04 04:15:18;;;;;;;4.40;1.20;;;;;;;17.25;98.35;100979.53;5172263;28;20463;-74
2022/07/04 04:17:48;;;;;;;3.33;1.20;;;;;;;17.04;97.97;100986.88;5168254;28;20119;-74
2022/07/04 04:20:19;;;;;;;4.72;1.10;;;;;;;16.99;99.06;100996.00;5171936;28;20026;-74
2022/07/04 04:22:50;;;;;;;5.30;1.30;;;;;;;17.03;97.98;100998.38;5169212;28;20044;-74
2022/07/04 04:25:20;;;;;;;4.45;1.10;;;;;;;17.32;99.11;100994.13;5172268;28;20101;-74
2022/07/04 04:27:50;;;;;;;2.00;0.90;;;;;;;17.36;99.10;101000.97;5169207;28;20033;-74
2022/07/04 04:30:21;;;;;;;3.13;1.00;;;;;;;17.52;98.20;101001.78;5158808;28;20027;-73
2022/07/04 04:32:51;;;;;;;6.18;1.30;;;;;;;17.27;98.39;101007.56;5165143;28;20025;-73
2022/07/04 04:35:21;;;;;;;3.55;1.10;;;;;;;17.31;98.48;101008.25;5175562;28;20454;-74
2022/07/04 04:37:51;;;;;;;2.88;1.05;;;;;;;17.95;95.73;101007.16;5177761;28;20037;-74
2022/07/04 04:40:22;;;;;;;2.85;1.08;;;;;;;18.14;95.08;101005.13;5175759;28;20029;-73
2022/07/04 04:42:52;;;;;;;1.35;0.90;;;;;;;18.17;94.84;101012.03;5174969;28;20495;-74
2022/07/04 04:45:23;;;;;;;3.80;1.27;;;;;;;18.47;95.13;100999.59;5177465;28;20105;-74
2022/07/04 04:47:53;;;;;;;4.82;1.10;;;;;;;18.82;88.79;101010.59;5175236;28;20030;-75
2022/07/04 04:50:23;;;;;;;3.85;1.05;;;;;;;18.67;91.48;101012.50;5177639;28;20029;-74
2022/07/04 04:52:54;;;;;;;3.42;1.00;;;;;;;18.40;91.23;101014.16;5176301;28;20045;-75
2022/07/04 04:55:24;;;;;;;2.42;0.98;;;;;;;18.39;92.94;101015.13;5177243;28;20032;-74
2022/07/04 04:57:54;;;;;;;2.83;1.27;;;;;;;17.91;93.44;101020.63;5175163;28;20128;-74
2022/07/04 05:00:25;;;;;;;3.20;1.38;;;;;;;18.01;94.20;101016.53;5170298;28;20026;-74
2022/07/04 05:02:55;;;;;;;3.75;1.42;;;;;;;18.87;92.01;101020.88;5170116;28;20450;-74
2022/07/04 05:05:26;;;;;;;3.55;1.25;;;;;;;21.01;81.77;101008.97;5175321;28;20396;-74
2022/07/04 05:07:56;;;;;;;3.05;1.30;;;;;;;21.04;79.51;101019.41;5176973;28;20021;-74
2022/07/04 05:10:26;;;;;;;2.25;1.00;;;;;;;22.77;74.29;101019.44;5175236;28;20022;-74
2022/07/04 05:12:57;;;;;;;5.22;1.30;;;;;;;23.87;71.11;101018.44;5175257;28;20198;-74
2022/07/04 05:15:27;;;;;;;2.63;1.20;;;;;;;23.82;69.28;101009.91;5176877;28;20088;-74
2022/07/04 05:17:57;;;;;;;4.45;1.10;;;;;;;24.21;68.12;101023.47;5175462;28;20117;-75
2022/07/04 05:20:28;;;;;;;4.15;1.25;;;;;;;25.88;64.70;101020.13;5176321;28;20446;-75
2022/07/04 05:22:58;;;;;;;2.65;0.95;;;;;;;26.62;62.81;101011.28;5176628;28;20414;-75
2022/07/04 05:25:28;;;;;;;4.85;1.10;;;;;;;26.64;61.89;101015.53;5178082;28;20475;-74
2022/07/04 05:27:59;;;;;;;1.80;0.90;;;;;;;26.83;63.19;101027.06;5169875;28;20029;-74
2022/07/04 05:30:29;;;;;;;2.63;1.10;;;;;;;27.25;61.99;101028.28;5165441;28;20430;-75
2022/07/04 05:33:01;;;;;;;2.13;1.00;;;;;;;25.95;63.19;101030.13;5170350;28;20029;-74
2022/07/04 05:35:32;;;;;;;4.50;1.20;;;;;;;26.09;64.72;101037.75;5176734;28;20034;-75
2022/07/04 05:38:02;;;;;;;2.10;1.00;;;;;;;25.64;66.30;101035.72;5176077;28;20030;-74
2022/07/04 05:40:32;;;;;;;3.22;1.17;;;;;;;24.76;67.84;101036.50;5174905;28;20030;-74
2022/07/04 05:43:03;;;;;;;1.70;1.00;;;;;;;23.39;69.65;101036.63;5175339;28;20038;-75
2022/07/04 05:45:33;;;;;;;3.80;1.25;;;;;;;23.21;72.17;101043.44;5172688;28;20028;-75
2022/07/04 05:48:03;;;;;;;4.70;1.48;;;;;;;22.02;78.54;101042.22;5171445;28;20109;-75
2022/07/04 05:50:34;;;;;;;4.43;1.67;;;;;;;23.02;74.88;101043.19;5170426;28;20032;-75
2022/07/04 05:53:05;;;;;;;3.13;1.13;;;;;;;23.53;73.36;101033.69;5172770;28;20060;-74
2022/07/04 05:55:35;;;;;;;3.30;1.40;;;;;;;22.74;74.29;101038.34;5173560;28;20049;-74
2022/07/04 05:58:05;;;;;;;4.53;1.40;;;;;;;22.42;77.38;101032.97;5171395;28;20637;-74
2022/07/04 06:00:36;;;;;;;5.53;1.75;;;;;;;22.02;78.20;101037.78;5164157;28;20377;-74
2022/07/04 06:03:06;;;;;;;3.03;1.65;;;;;;;21.30;80.78;101039.66;5166172;28;20026;-74
2022/07/04 06:05:37;;;;;;;3.13;1.60;;;;;;;21.40;80.76;101038.88;5171615;28;20137;-75
2022/07/04 06:08:07;;;;;;;4.32;1.73;;;;;;;21.39;80.08;101029.19;5170680;28;20034;-74
2022/07/04 06:10:37;;;;;;;4.40;1.83;;;;;;;21.71;79.02;101029.53;5171285;28;20022;-74
2022/07/04 06:13:08;;;;;;;2.53;1.50;;;;;;;21.30;81.39;101031.66;5172068;28;20281;-74
2022/07/04 06:15:39;;;;;;;3.33;1.55;;;;;;;21.42;80.26;101031.63;5171273;28;20026;-74
2022/07/04 06:18:09;;;;;;;5.22;1.60;;;;;;;21.44;79.53;101035.00;5172283;28;20053;-74
2022/07/04 06:20:40;;;;;;;4.28;1.85;;;;;;;21.40;80.43;101044.19;5169551;28;20373;-74
2022/07/04 06:23:11;;;;;;;3.58;1.60;;;;;;;22.01;78.98;101040.53;5171153;28;20029;-74
2022/07/04 06:25:41;;;;;;;7.85;1.73;;;;;;;21.51;79.70;101040.75;5171520;28;20244;-75
2022/07/04 06:28:11;;;;;;;2.70;1.50;;;;;;;21.33;79.34;101044.72;5166818;28;20380;-74
2022/07/04 06:30:42;;;;;;;4.57;1.70;;;;;;;20.63;80.52;101044.50;5161305;28;20038;-73
2022/07/04 06:33:12;;;;;;;4.72;1.42;;;;;;;20.59;81.45;101043.84;5179629;28;20101;-74
2022/07/04 06:35:45;;;;;;;6.45;1.70;;;;;;;20.53;83.94;101044.28;5172196;28;20124;-74
2022/07/04 06:38:19;;;;;;;4.45;1.30;;;;;;;20.26;83.77;101038.19;5168155;28;20026;-75
2022/07/04 06:40:52;;;;;;;3.10;1.50;;;;;;;21.51;80.17;101035.41;5165487;28;20029;-71
2022/07/04 06:43:24;;;;;;;4.47;1.50;;;;;;;21.90;76.70;101030.69;5171231;28;20403;-75
2022/07/04 06:45:55;;;;;;;3.22;1.10;;;;;;;22.57;75.07;101031.78;5169663;28;20470;-74
2022/07/04 06:48:26;;;;;;;4.45;1.25;;;;;;;23.08;72.94;101029.38;5170256;28;20026;-74
2022/07/04 06:50:56;;;;;;;2.35;1.00;;;;;;;22.63;74.08;101028.63;5172560;28;20061;-74
2022/07/04 06:53:26;;;;;;;4.53;1.20;;;;;;;22.21;75.92;101031.88;5185591;28;20457;-74
2022/07/04 06:55:57;;;;;;;2.88;1.05;;;;;;;21.58;77.09;101039.34;5172075;28;20061;-73
2022/07/04 06:58:27;;;;;;;5.53;1.17;;;;;;;21.46;76.11;101034.91;5170265;28;20026;-74
2022/07/04 07:00:57;;;;;;;3.75;1.00;;;;;;;21.05;77.50;101032.56;5161757;28;20383;-72
2022/07/04 07:03:28;;;;;;;3.65;0.90;;;;;;;20.90;78.66;101032.81;5166265;28;20022;-74
2022/07/04 07:05:59;;;;;;;3.58;1.20;;;;;;;21.82;74.55;101024.25;5184156;28;20095;-75
2022/07/04 07:08:30;;;;;;;2.80;0.90;;;;;;;23.23;72.60;101024.66;5167009;28;20562;-75
2022/07/04 07:11:12;;;;;;;2.33;0.80;;;;;;;24.00;69.40;101025.28;5162976;28;20061;-75
2022/07/04 07:13:44;;;;;;;2.53;1.02;;;;;;;24.68;66.51;101020.28;5165902;28;20026;-75
2022/07/04 07:16:15;;;;;;;2.33;0.70;;;;;;;25.24;65.67;101016.19;5167776;28;20018;-75
2022/07/04 07:18:46;;;;;;;1.70;0.60;;;;;;;25.08;65.56;101023.84;5169061;28;20080;-74
2022/07/04 07:21:17;;;;;;;3.35;0.85;;;;;;;25.74;64.13;101029.41;5164782;28;20403;-73
2022/07/04 07:23:47;;;;;;;3.10;0.80;;;;;;;25.41;62.56;101027.09;5173271;28;20025;-75
2022/07/04 07:26:17;;;;;;;2.38;0.80;;;;;;;26.31;60.57;101023.22;5168758;28;20400;-75
2022/07/04 07:28:48;;;;;;;3.03;0.70;;;;;;;26.77;58.49;101024.09;5172452;28;20472;-75
2022/07/04 07:31:18;;;;;;;3.03;0.60;;;;;;;25.65;62.41;101027.53;5157737;28;20034;-74
2022/07/04 07:33:48;;;;;;;3.13;1.10;;;;;;;23.92;64.31;101043.81;5168809;28;20030;-75
2022/07/04 07:36:19;;;;;;;2.35;0.82;;;;;;;23.37;68.74;101033.22;5168359;28;20089;-75
2022/07/04 07:38:49;;;;;;;3.65;0.90;;;;;;;25.70;62.92;101027.13;5171086;28;20029;-75
2022/07/04 07:41:20;;;;;;;3.50;0.80;;;;;;;25.25;63.35;101020.53;5168613;28;20032;-75
2022/07/04 07:43:50;;;;;;;3.70;0.90;;;;;;;25.14;62.62;101028.66;5168979;28;20031;-74
2022/07/04 07:46:20;;;;;;;6.30;0.98;;;;;;;24.93;64.57;101030.53;5171500;28;20371;-74
2022/07/04 07:48:50;;;;;;;3.33;0.98;;;;;;;26.38;60.40;101035.88;5169150;28;20556;-74
2022/07/04 07:51:21;;;;;;;2.67;0.80;;;;;;;26.94;58.93;101029.53;5172008;28;20035;-74
2022/07/04 07:53:52;;;;;;;2.28;1.08;;;;;;;27.65;58.14;101034.13;5168787;28;20034;-75
2022/07/04 07:56:22;;;;;;;5.00;1.00;;;;;;;27.98;54.80;101038.84;5167813;28;20034;-75
2022/07/04 07:58:53;;;;;;;3.70;0.80;;;;;;;27.52;57.56;101044.41;5183725;28;20030;-74
2022/07/04 08:01:24;;;;;;;4.43;0.95;;;;;;;27.09;57.42;101038.78;5156138;28;20121;-75
2022/07/04 08:06:43;;;;;;;3.50;0.90;;;;;;;27.05;57.82;101036.53;5170620;28;20530;-75
2022/07/04 08:09:14;;;;;;;4.63;1.10;;;;;;;26.31;59.73;101039.28;5170204;28;20118;-75
2022/07/04 08:11:44;;;;;;;3.15;1.10;;;;;;;25.79;62.69;101047.69;5166429;28;20022;-75
2022/07/04 08:14:14;;;;;;;3.28;1.00;;;;;;;26.71;60.13;101032.72;5172121;28;20049;-74
2022/07/04 08:16:45;;;;;;;3.25;1.00;;;;;;;27.33;58.36;101036.47;5167857;28;20392;-73
2022/07/04 08:19:15;;;;;;;3.95;0.95;;;;;;;28.17;57.49;101035.97;5171663;28;20025;-75
2022/07/04 08:21:49;;;;;;;4.25;1.27;;;;;;;28.01;57.93;101022.44;5167924;28;20085;-76
2022/07/04 08:24:20;;;;;;;2.92;0.73;;;;;;;28.33;56.33;101011.13;5167764;28;20030;-75
2022/07/04 08:26:51;;;;;;;2.28;0.90;;;;;;;27.87;57.43;101016.72;5171089;28;20081;-75
2022/07/04 08:29:22;;;;;;;1.20;0.63;;;;;;;26.62;56.32;101024.69;5164525;28;20449;-75
2022/07/04 08:31:52;;;;;;;1.45;0.77;;;;;;;24.72;60.45;101028.91;5159600;28;20125;-74
2022/07/04 08:34:22;;;;;;;3.30;0.90;;;;;;;24.42;61.28;101024.31;5168770;28;20411;-74
2022/07/04 08:36:53;;;;;;;2.90;1.00;;;;;;;25.74;61.60;101031.22;5170668;28;20209;-75
2022/07/04 08:39:23;;;;;;;1.50;0.73;;;;;;;26.34;59.28;101012.19;5169460;28;20026;-75
2022/07/04 08:41:58;;;;;;;3.45;0.80;;;;;;;27.95;57.55;101006.06;5166083;28;20030;-75
2022/07/04 08:44:30;;;;;;;3.08;0.80;;;;;;;28.33;55.19;101001.19;5169902;28;20021;-75
2022/07/04 08:47:00;;;;;;;2.60;0.70;;;;;;;29.59;53.24;101002.00;5152027;28;20320;-75
2022/07/04 08:49:33;;;;;;;2.20;0.75;;;;;;;27.89;55.70;101007.53;5169587;28;20395;-75
2022/07/04 08:52:05;;;;;;;3.75;0.95;;;;;;;28.39;56.18;101000.56;5168514;28;20070;-75
2022/07/04 09:00:14;;;;;;;1.65;0.70;;;;;;;30.14;52.19;101003.13;5161310;28;20042;-72
2022/07/04 09:02:44;;;;;;;1.75;0.60;;;;;;;31.13;50.20;100997.19;5163121;28;20484;-75
2022/07/04 09:05:16;;;;;;;2.05;0.50;;;;;;;30.47;49.89;101001.22;5167976;28;20484;-75
2022/07/04 09:07:47;;;;;;;1.23;0.40;;;;;;;31.70;47.84;100999.44;5169486;28;20077;-74
2022/07/04 09:10:17;;;;;;;6.55;1.40;;;;;;;30.94;48.67;100994.88;5164986;28;20037;-74
2022/07/04 09:12:48;;;;;;;1.90;0.60;;;;;;;31.67;46.97;100996.25;5166715;28;20022;-74
2022/07/04 09:15:19;;;;;;;2.58;0.55;;;;;;;31.20;47.96;100998.19;5166844;28;20109;-74
2022/07/04 09:17:49;;;;;;;2.05;0.55;;;;;;;29.93;49.30;101001.91;5170536;28;20076;-74
2022/07/04 09:20:22;;;;;;;4.35;0.55;;;;;;;28.20;52.56;101016.88;5169407;28;20014;-74
2022/07/04 09:22:54;;;;;;;2.50;0.85;;;;;;;28.84;54.00;101011.94;5174386;28;20464;-74
2022/07/04 09:25:25;;;;;;;1.63;0.57;;;;;;;30.48;50.46;101011.00;5172091;28;20041;-75
2022/07/04 09:27:56;;;;;;;2.17;0.60;;;;;;;30.15;50.36;101012.03;5172129;28;20058;-75
2022/07/04 09:30:27;;;;;;;2.40;0.70;;;;;;;30.71;49.13;101015.53;5163013;28;20265;-74
2022/07/04 09:33:00;;;;;;;1.73;0.65;;;;;;;29.99;49.65;101023.66;5165618;28;20088;-75
2022/07/04 09:35:32;;;;;;;3.35;0.77;;;;;;;28.20;53.01;101027.63;5173327;28;20034;-75
2022/07/04 09:38:04;;;;;;;2.63;0.63;;;;;;;27.26;55.13;101029.16;5171769;28;20037;-74
2022/07/04 09:43:26;;;;;;;1.90;0.65;;;;;;;28.06;55.30;101014.75;5169558;28;20578;-75
2022/07/04 09:45:58;;;;;;;2.38;0.85;;;;;;;28.85;53.36;101013.63;5172651;28;20066;-75
2022/07/04 09:48:50;;;;;;;4.65;0.68;;;;;;;28.88;52.57;101010.63;5172639;28;20030;-75
2022/07/04 09:51:42;;;;;;;2.00;0.60;;;;;;;27.39;53.08;101022.44;5168271;28;20484;-74
2022/07/04 09:54:30;;;;;;;2.17;0.80;;;;;;;27.79;53.13;101013.97;5171017;28;20084;-74
2022/07/04 09:57:02;;;;;;;1.90;0.50;;;;;;;27.99;51.64;101000.22;5168428;28;20606;-75
2022/07/04 09:59:34;;;;;;;3.00;0.75;;;;;;;27.21;55.36;101010.81;5167752;28;20050;-75
2022/07/04 10:02:13;;;;;;;1.77;0.77;;;;;;;26.44;56.40;101007.63;5162094;28;20034;-74
2022/07/04 10:04:47;;;;;;;1.95;0.60;;;;;;;27.85;52.47;101006.16;5170249;28;20293;-74
2022/07/04 10:07:35;;;;;;;1.40;0.60;;;;;;;28.44;52.74;100992.03;5166386;28;20480;-75
2022/07/04 10:10:30;;;;;;;1.98;0.50;;;;;;;28.72;49.55;100986.31;5171944;28;20046;-73
2022/07/04 10:13:04;;;;;;;1.88;0.70;;;;;;;28.22;51.78;100995.19;5169582;28;20034;-75
2022/07/04 10:15:39;;;;;;;1.65;0.50;;;;;;;27.99;52.29;100986.78;5172121;28;20422;-74
2022/07/04 10:18:09;;;;;;;3.88;0.70;;;;;;;26.31;53.83;100996.41;5172821;28;20022;-74
2022/07/04 10:20:41;;;;;;;2.20;0.70;;;;;;;25.56;54.36;101000.75;5169326;28;20110;-73
2022/07/04 10:23:12;;;;;;;1.38;0.57;;;;;;;26.03;54.86;100997.28;5173444;28;20049;-74
2022/07/04 10:25:46;;;;;;;1.73;0.63;;;;;;;26.28;54.63;100992.16;5170626;28;20480;-74
2022/07/04 10:28:17;;;;;;;3.40;0.60;;;;;;;26.47;54.85;100992.13;5173711;28;20033;-74
2022/07/04 10:30:52;;;;;;;1.40;0.70;;;;;;;26.56;55.02;100985.06;5157945;28;20053;-73
2022/07/04 10:33:25;;;;;;;3.25;0.47;;;;;;;26.20;55.87;100978.63;5166680;28;20439;-74
2022/07/04 10:36:01;;;;;;;2.40;0.93;;;;;;;25.36;55.47;100996.34;5172459;28;20395;-74
2022/07/04 10:38:32;;;;;;;1.40;0.70;;;;;;;25.30;56.45;100984.34;5186293;28;20030;-74
2022/07/04 10:41:07;;;;;;;2.03;0.60;;;;;;;25.35;56.26;100978.59;5170999;28;20081;-73
2022/07/04 10:44:00;;;;;;;2.47;0.60;;;;;;;24.36;58.25;100981.25;5169970;28;20472;-74
2022/07/04 10:46:56;;;;;;;2.88;0.60;;;;;;;23.95;60.28;100990.13;5169031;28;20030;-70
2022/07/04 10:49:28;;;;;;;3.70;0.63;;;;;;;24.02;60.89;100985.94;5168755;28;20029;-73
2022/07/04 10:52:12;;;;;;;3.42;0.63;;;;;;;25.17;58.91;100980.22;5168706;28;20093;-74
2022/07/04 10:54:44;;;;;;;3.30;0.70;;;;;;;25.36;58.57;100962.41;5170167;28;20053;-72
2022/07/04 10:57:23;;;;;;;2.92;1.00;;;;;;;26.00;57.55;100963.56;5171800;28;20479;-74
2022/07/04 10:59:53;;;;;;;0.88;0.40;;;;;;;25.77;54.11;100963.97;5161335;28;20373;-74
2022/07/04 11:02:34;;;;;;;2.43;0.50;;;;;;;25.06;55.75;100965.13;5160516;28;20032;-74
2022/07/04 11:05:08;;;;;;;3.42;0.57;;;;;;;25.29;55.85;100958.59;5186929;28;20392;-73
2022/07/04 11:07:41;;;;;;;3.30;0.65;;;;;;;25.16;55.75;100962.47;5168978;28;20038;-73
2022/07/04 11:12:54;;;;;;;2.67;0.50;;;;;;;24.95;56.59;100969.75;5168459;28;20080;-74
2022/07/04 11:15:24;;;;;;;3.20;0.70;;;;;;;25.33;55.11;100959.16;5165941;28;20293;-74
2022/07/04 11:17:57;;;;;;;3.30;0.50;;;;;;;25.32;54.08;100957.47;5171645;28;20040;-73
2022/07/04 11:20:30;;;;;;;2.17;0.65;;;;;;;24.95;53.30;100959.03;5169515;28;20613;-73
2022/07/04 11:23:08;;;;;;;2.15;0.65;;;;;;;24.94;54.04;100958.19;5171433;28;20476;-73
2022/07/04 11:25:50;;;;;;;3.00;0.60;;;;;;;25.35;54.76;100946.47;5172185;28;20025;-73
2022/07/04 11:28:25;;;;;;;1.45;0.40;;;;;;;25.56;54.52;100953.41;5165086;28;20393;-73
2022/07/04 11:30:57;;;;;;;4.93;0.90;;;;;;;25.30;54.75;100956.75;5168286;28;20065;-74
2022/07/04 11:33:30;;;;;;;3.22;0.60;;;;;;;25.09;54.95;100961.31;5168503;28;20443;-74
2022/07/04 11:36:08;;;;;;;3.83;0.60;;;;;;;25.06;54.66;100953.56;5169715;28;20026;-73
2022/07/04 11:39:02;;;;;;;1.25;0.40;;;;;;;25.22;54.18;100953.91;5170784;28;20022;-72
2022/07/04 11:47:36;;;;;;;1.40;0.40;;;;;;;25.41;53.76;100945.91;5166997;28;20518;-73
2022/07/04 11:50:10;;;;;;;0.95;0.30;;;;;;;25.55;53.05;100948.19;5167649;28;20026;-74
2022/07/04 11:52:46;;;;;;;1.33;0.50;;;;;;;25.49;51.64;100943.41;5169229;28;20026;-75
2022/07/04 11:55:17;;;;;;;2.05;0.55;;;;;;;25.28;52.82;100943.50;5166754;28;20018;-73
2022/07/04 11:57:51;;;;;;;3.30;0.50;;;;;;;25.30;53.26;100951.41;5160647;28;20096;-73
2022/07/04 12:00:27;;;;;;;2.90;0.57;;;;;;;25.68;53.14;100935.38;5167435;28;20028;-72
2022/07/04 12:03:01;;;;;;;;;;;;;;;25.77;51.78;100934.50;5170609;28;20025;-73
2022/07/04 12:05:32;;;;;;;0.80;0.30;;;;;;;25.87;50.90;100927.34;5170100;28;19921;-74
2022/07/04 12:08:05;;;;;;;2.22;0.50;;;;;;;25.79;52.24;100936.06;5169507;28;20515;-74
2022/07/04 12:10:36;;;;;;;2.30;0.40;;;;;;;25.67;51.42;100931.00;5169249;28;20460;-72